Time;durP1;ratioP1;P1;durP2;ratioP2;P2;SDS_P1;SDS_P2;PMS_P1;PMS_P2;Temp;Humidity;BMP_temperature;BMP_pressure;BME280_temperature;BME280_humidity;BME280_pressure;Samples;Min_cycle;Max_cycle;Signal;HPM_P1;HPM_P2
2022/10/08 00:00:56;;;;;;;11.43;4.77;;;;;;;11.05;73.88;100352.25;5121135;28;20498;-68
2022/10/08 00:03:24;;;;;;;15.33;4.90;;;;;;;11.00;74.04;100344.66;5116690;28;20482;-68
2022/10/08 00:05:58;;;;;;;10.53;5.17;;;;;;;11.00;73.87;100343.81;5117130;28;20466;-69
2022/10/08 00:08:26;;;;;;;11.70;4.60;;;;;;;10.96;74.28;100340.56;5121461;28;20485;-69
2022/10/08 00:10:54;;;;;;;14.97;5.67;;;;;;;11.11;73.72;100338.34;5121752;28;20492;-69
2022/10/08 00:13:21;;;;;;;8.83;4.10;;;;;;;11.18;73.10;100338.59;5114019;28;20533;-68
2022/10/08 00:15:50;;;;;;;8.33;4.70;;;;;;;11.02;73.61;100333.81;5121106;28;20481;-69
2022/10/08 00:18:17;;;;;;;7.90;4.40;;;;;;;11.10;73.74;100336.63;5120008;28;20491;-69
2022/10/08 00:20:44;;;;;;;10.80;4.77;;;;;;;11.00;74.17;100330.44;5116899;28;20470;-68
2022/10/08 00:23:11;;;;;;;9.80;3.80;;;;;;;11.00;74.18;100327.75;5121471;28;20486;-69
2022/10/08 00:25:41;;;;;;;11.87;4.30;;;;;;;11.05;74.15;100336.22;5120929;28;20465;-69
2022/10/08 00:28:08;;;;;;;8.90;4.10;;;;;;;11.10;74.04;100334.78;5121260;28;20723;-69
2022/10/08 00:30:36;;;;;;;10.43;3.97;;;;;;;10.99;74.29;100326.06;5116747;28;20458;-69
2022/10/08 00:33:06;;;;;;;10.63;4.23;;;;;;;11.04;74.45;100327.34;5119726;28;20461;-69
2022/10/08 00:35:36;;;;;;;10.67;5.53;;;;;;;11.02;74.30;100325.78;5120004;28;20486;-68
2022/10/08 00:38:03;;;;;;;13.63;4.70;;;;;;;10.95;74.60;100325.50;5120163;28;20438;-69
2022/10/08 00:40:30;;;;;;;11.40;4.33;;;;;;;11.02;74.37;100331.13;5118789;28;20474;-68
2022/10/08 00:42:59;;;;;;;10.13;4.20;;;;;;;10.99;74.28;100331.41;5119966;28;20519;-68
2022/10/08 00:45:26;;;;;;;9.90;4.77;;;;;;;10.93;74.65;100333.66;5120510;28;20423;-68
2022/10/08 00:47:56;;;;;;;7.07;4.10;;;;;;;10.79;75.43;100336.75;5119630;28;20477;-69
2022/10/08 00:50:31;;;;;;;6.60;4.00;;;;;;;10.88;75.29;100329.72;5088994;28;20479;-68
2022/10/08 00:53:00;;;;;;;10.23;4.20;;;;;;;10.80;75.37;100322.41;5100220;28;20526;-69
2022/10/08 00:55:27;;;;;;;11.07;4.20;;;;;;;10.65;75.93;100335.34;5120754;28;20510;-68
2022/10/08 00:57:54;;;;;;;8.67;4.00;;;;;;;10.78;75.54;100323.53;5120975;28;20474;-68
2022/10/08 01:00:23;;;;;;;8.87;4.20;;;;;;;10.72;75.75;100325.78;5114533;28;20446;-68
2022/10/08 01:02:50;;;;;;;13.13;4.20;;;;;;;10.76;75.61;100328.19;5119462;28;20477;-68
2022/10/08 01:05:19;;;;;;;12.40;4.20;;;;;;;10.71;75.70;100320.56;5119864;28;20482;-68
2022/10/08 01:07:51;;;;;;;12.00;3.87;;;;;;;10.68;76.03;100324.38;5120662;28;20454;-68
2022/10/08 01:10:26;;;;;;;14.00;4.50;;;;;;;10.69;76.04;100320.72;5111291;28;20483;-67
2022/10/08 01:13:02;;;;;;;9.33;4.07;;;;;;;10.68;76.28;100324.38;5119052;28;20471;-67
2022/10/08 01:15:33;;;;;;;8.80;4.23;;;;;;;10.65;76.23;100318.47;5119659;28;20466;-68
2022/10/08 01:18:06;;;;;;;7.80;4.27;;;;;;;10.61;76.46;100317.06;5118591;28;20472;-67
2022/10/08 01:20:44;;;;;;;10.47;3.60;;;;;;;10.51;77.04;100311.69;5109414;28;21043;-68
2022/10/08 01:23:39;;;;;;;10.50;4.40;;;;;;;10.39;77.41;100321.66;5117104;28;20508;-68
2022/10/08 01:26:15;;;;;;;9.10;4.43;;;;;;;10.40;77.42;100326.03;5111233;28;20555;-67
2022/10/08 01:28:45;;;;;;;11.43;4.57;;;;;;;10.53;77.14;100321.25;5100110;28;20431;-67
2022/10/08 01:31:17;;;;;;;6.97;3.80;;;;;;;10.45;77.25;100315.78;5117789;28;20478;-68
2022/10/08 01:33:48;;;;;;;8.37;3.90;;;;;;;10.40;77.61;100319.81;5119878;28;20450;-68
2022/10/08 01:36:17;;;;;;;7.63;3.63;;;;;;;10.39;77.62;100310.97;5119691;28;20470;-68
2022/10/08 01:38:48;;;;;;;9.03;4.70;;;;;;;10.34;77.99;100318.56;5087509;28;20511;-68
2022/10/08 01:41:15;;;;;;;13.10;4.70;;;;;;;10.36;77.98;100320.13;5105050;28;20547;-68
2022/10/08 01:43:46;;;;;;;8.03;3.53;;;;;;;10.36;77.62;100320.13;5119473;28;20474;-68
2022/10/08 01:46:17;;;;;;;10.30;3.87;;;;;;;10.40;77.76;100315.34;5119274;28;21343;-68
2022/10/08 01:48:44;;;;;;;17.20;5.23;;;;;;;10.33;78.00;100320.38;5103393;28;20478;-69
2022/10/08 01:51:15;;;;;;;11.77;4.13;;;;;;;10.24;78.09;100314.97;5120254;28;20466;-69
2022/10/08 01:53:45;;;;;;;13.20;4.80;;;;;;;10.22;78.64;100320.47;5119834;28;20454;-68
2022/10/08 01:56:14;;;;;;;13.40;3.53;;;;;;;10.28;78.41;100316.41;5119780;28;20506;-67
2022/10/08 01:58:48;;;;;;;18.90;4.40;;;;;;;10.26;78.76;100318.34;5118817;28;20494;-66
2022/10/08 02:01:21;;;;;;;10.60;5.67;;;;;;;10.24;78.88;100315.84;5119524;28;21153;-67
2022/10/08 02:06:29;;;;;;;11.53;4.13;;;;;;;10.22;78.66;100309.75;5122991;28;20533;-67
2022/10/08 02:08:55;;;;;;;15.63;4.00;;;;;;;10.19;79.02;100307.41;5116468;28;20542;-67
2022/10/08 02:11:22;;;;;;;12.03;4.40;;;;;;;10.12;79.17;100300.88;5122662;28;20502;-67
2022/10/08 02:13:50;;;;;;;10.53;3.50;;;;;;;10.33;78.62;100299.00;5123150;28;20473;-67
2022/10/08 02:16:21;;;;;;;10.77;4.13;;;;;;;10.22;78.85;100308.94;5122898;28;21061;-67
2022/10/08 02:18:53;;;;;;;8.80;3.80;;;;;;;10.22;79.26;100311.59;5114746;28;20497;-67
2022/10/08 02:21:24;;;;;;;11.87;3.93;;;;;;;10.27;79.06;100307.53;5122858;28;20486;-67
2022/10/08 02:23:56;;;;;;;13.00;4.83;;;;;;;10.45;78.30;100305.09;5122795;28;20486;-67
2022/10/08 02:26:28;;;;;;;10.80;3.77;;;;;;;10.44;78.44;100303.38;5119207;28;20483;-67
2022/10/08 02:29:01;;;;;;;10.47;3.80;;;;;;;10.41;78.48;100300.16;5109274;28;20465;-67
2022/10/08 02:31:32;;;;;;;10.90;4.07;;;;;;;10.48;78.42;100301.28;5122589;28;20494;-67
2022/10/08 02:34:03;;;;;;;10.50;3.57;;;;;;;10.57;78.24;100300.44;5122004;28;20446;-66
2022/10/08 02:36:32;;;;;;;6.87;3.97;;;;;;;10.69;77.97;100306.50;5118593;28;20522;-67
2022/10/08 02:39:02;;;;;;;11.27;5.17;;;;;;;10.69;77.75;100295.78;5120197;28;20438;-68
2022/10/08 02:41:31;;;;;;;7.90;4.40;;;;;;;10.76;77.63;100299.59;5122575;28;20486;-68
2022/10/08 02:44:05;;;;;;;10.33;4.07;;;;;;;10.84;77.20;100291.72;5119649;28;20478;-68
2022/10/08 02:46:35;;;;;;;9.50;4.20;;;;;;;10.91;77.03;100287.50;5121938;28;20470;-68
2022/10/08 02:49:06;;;;;;;13.97;4.37;;;;;;;10.90;77.03;100288.50;5121851;28;20450;-68
2022/10/08 02:51:34;;;;;;;9.17;4.03;;;;;;;11.03;76.70;100284.69;5122668;28;20474;-67
2022/10/08 02:54:03;;;;;;;7.40;3.43;;;;;;;10.88;77.47;100292.28;5115135;28;20604;-68
2022/10/08 02:56:33;;;;;;;10.30;4.20;;;;;;;10.98;76.79;100297.63;5119157;28;20470;-68
2022/10/08 02:59:02;;;;;;;16.37;4.73;;;;;;;11.06;76.42;100292.44;5123122;28;20438;-68
2022/10/08 03:01:37;;;;;;;7.83;4.33;;;;;;;11.01;76.72;100298.19;5122344;28;20470;-68
2022/10/08 03:04:07;;;;;;;5.70;4.00;;;;;;;11.14;76.95;100299.72;5114477;28;20478;-68
2022/10/08 03:06:35;;;;;;;8.13;3.63;;;;;;;10.99;78.13;100305.53;5112972;28;20486;-68
2022/10/08 03:09:05;;;;;;;10.47;3.90;;;;;;;10.93;78.91;100298.06;5122457;28;20600;-67
2022/10/08 03:11:33;;;;;;;14.73;4.10;;;;;;;11.03;79.11;100300.72;5122399;28;20486;-67
2022/10/08 03:14:04;;;;;;;11.37;3.90;;;;;;;10.98;79.17;100297.63;5117628;28;20470;-67
2022/10/08 03:16:36;;;;;;;14.93;4.37;;;;;;;10.87;79.32;100312.00;5121350;28;20471;-67
2022/10/08 03:19:04;;;;;;;10.90;3.87;;;;;;;10.92;79.24;100305.25;5121442;28;20450;-67
2022/10/08 03:21:31;;;;;;;8.37;3.90;;;;;;;10.97;79.18;100307.50;5121772;28;20506;-67
2022/10/08 03:23:58;;;;;;;5.90;3.70;;;;;;;11.03;79.22;100304.25;5121697;28;20498;-67
2022/10/08 03:26:25;;;;;;;10.40;4.40;;;;;;;11.05;79.14;100315.63;5122197;28;20475;-68
2022/10/08 03:28:52;;;;;;;9.63;4.03;;;;;;;11.08;78.73;100301.16;5121502;28;20442;-67
2022/10/08 03:31:20;;;;;;;12.50;4.37;;;;;;;11.14;78.63;100302.41;5120652;28;20470;-67
2022/10/08 03:33:50;;;;;;;10.97;4.00;;;;;;;11.12;78.73;100297.19;5120089;28;20587;-67
2022/10/08 03:36:17;;;;;;;8.80;3.80;;;;;;;11.09;79.21;100298.34;5121089;28;20510;-67
2022/10/08 03:38:43;;;;;;;7.10;3.97;;;;;;;11.15;78.60;100296.06;5121666;28;20470;-67
2022/10/08 03:41:10;;;;;;;9.10;3.60;;;;;;;11.19;78.71;100295.63;5121132;28;20470;-68
2022/10/08 03:43:37;;;;;;;6.83;3.63;;;;;;;11.31;78.45;100299.00;5118969;28;20450;-67
2022/10/08 03:46:05;;;;;;;9.17;3.97;;;;;;;11.23;79.01;100297.03;5111416;28;20540;-67
2022/10/08 03:48:33;;;;;;;11.47;4.17;;;;;;;11.35;78.97;100289.66;5103644;28;20867;-67
2022/10/08 03:51:02;;;;;;;16.37;4.30;;;;;;;11.31;78.87;100288.28;5102488;28;20499;-68
2022/10/08 03:53:32;;;;;;;14.60;3.70;;;;;;;11.31;79.07;100293.63;5101793;28;20459;-67
2022/10/08 03:56:01;;;;;;;8.13;3.20;;;;;;;11.28;79.77;100297.47;5115174;28;20490;-68
2022/10/08 03:58:28;;;;;;;9.17;3.80;;;;;;;11.27;79.68;100297.59;5121384;28;20446;-68
2022/10/08 04:00:58;;;;;;;11.80;3.77;;;;;;;11.24;79.58;100295.22;5120847;28;20474;-68
2022/10/08 04:03:25;;;;;;;9.43;3.37;;;;;;;11.34;79.40;100303.22;5119767;28;20522;-68
2022/10/08 04:05:53;;;;;;;9.40;4.07;;;;;;;11.37;78.96;100294.88;5098584;28;20569;-68
2022/10/08 04:08:20;;;;;;;15.90;4.43;;;;;;;11.42;78.98;100306.00;5120731;28;20507;-68
2022/10/08 04:10:47;;;;;;;10.43;3.53;;;;;;;11.31;78.69;100299.81;5120831;28;21081;-68
2022/10/08 04:13:15;;;;;;;14.87;4.50;;;;;;;11.36;79.11;100303.91;5120989;28;20447;-68
2022/10/08 04:15:41;;;;;;;13.33;4.07;;;;;;;11.39;78.97;100309.00;5111849;28;20469;-68
2022/10/08 04:18:11;;;;;;;12.63;4.37;;;;;;;11.39;79.28;100304.47;5120232;28;20454;-68
2022/10/08 04:20:38;;;;;;;12.63;4.10;;;;;;;11.51;78.53;100307.84;5120304;28;20473;-68
2022/10/08 04:23:06;;;;;;;8.07;3.47;;;;;;;11.42;78.89;100316.72;5120912;28;20697;-68
2022/10/08 04:25:34;;;;;;;12.73;4.00;;;;;;;11.53;78.92;100315.69;5116187;28;20477;-68
2022/10/08 04:28:03;;;;;;;13.43;4.13;;;;;;;11.62;79.12;100318.34;5119138;28;20451;-68
2022/10/08 04:30:30;;;;;;;12.33;4.50;;;;;;;11.62;78.91;100312.16;5120463;28;20470;-68
2022/10/08 04:32:57;;;;;;;12.40;5.27;;;;;;;11.61;79.87;100318.50;5119702;28;20459;-68
2022/10/08 04:35:24;;;;;;;9.40;3.93;;;;;;;11.56;80.12;100324.31;5114518;28;20454;-67
2022/10/08 04:37:52;;;;;;;6.50;3.73;;;;;;;11.67;80.02;100320.59;5120591;28;20465;-67
2022/10/08 04:40:20;;;;;;;10.83;4.27;;;;;;;11.67;79.85;100325.97;5120299;28;21048;-68
2022/10/08 04:42:51;;;;;;;18.83;5.10;;;;;;;11.56;81.58;100313.59;5120472;28;20466;-67
2022/10/08 04:45:17;;;;;;;11.20;4.30;;;;;;;11.52;82.34;100322.88;5114585;28;20491;-68
2022/10/08 04:47:45;;;;;;;10.87;4.30;;;;;;;11.59;82.58;100325.84;5120470;28;20514;-68
2022/10/08 04:50:16;;;;;;;11.93;5.90;;;;;;;11.55;83.02;100330.63;5119645;28;20903;-68
2022/10/08 04:52:43;;;;;;;14.37;4.67;;;;;;;11.63;83.21;100343.28;5120447;28;20471;-67
2022/10/08 04:55:10;;;;;;;11.93;4.93;;;;;;;11.61;83.07;100338.09;5117324;28;20469;-67
2022/10/08 04:57:38;;;;;;;10.33;5.30;;;;;;;11.68;82.96;100336.53;5121240;28;20463;-68
2022/10/08 05:00:06;;;;;;;9.43;5.33;;;;;;;11.76;82.88;100338.47;5120781;28;20483;-67
2022/10/08 05:02:33;;;;;;;17.77;8.10;;;;;;;11.62;83.35;100326.38;5118843;28;20471;-67
2022/10/08 05:05:00;;;;;;;12.53;7.30;;;;;;;11.49;84.38;100329.41;5112392;28;20482;-66
2022/10/08 05:07:28;;;;;;;17.43;7.97;;;;;;;11.51;84.57;100331.94;5119665;28;20486;-68
2022/10/08 05:09:55;;;;;;;11.70;7.23;;;;;;;11.42;85.09;100327.41;5120177;28;20565;-69
2022/10/08 05:12:21;;;;;;;15.63;7.53;;;;;;;11.45;85.67;100335.16;5079160;28;20542;-67
2022/10/08 05:14:50;;;;;;;19.10;8.47;;;;;;;11.51;85.50;100342.63;5113241;28;20439;-67
2022/10/08 05:17:17;;;;;;;15.27;7.67;;;;;;;11.56;85.83;100328.78;5119507;28;20470;-67
2022/10/08 05:19:46;;;;;;;11.90;6.40;;;;;;;11.50;85.60;100322.19;5116203;28;20468;-66
2022/10/08 05:22:13;;;;;;;15.17;7.17;;;;;;;11.30;86.60;100326.72;5107413;28;20539;-66
2022/10/08 05:24:40;;;;;;;14.47;8.60;;;;;;;11.34;86.76;100333.50;5110563;28;20490;-68
2022/10/08 05:27:07;;;;;;;19.80;8.83;;;;;;;11.39;87.20;100325.88;5099446;28;20495;-68
2022/10/08 05:29:33;;;;;;;21.37;10.40;;;;;;;11.32;87.59;100330.13;5100077;28;20439;-68
2022/10/08 05:32:01;;;;;;;14.40;10.60;;;;;;;11.35;87.28;100313.75;5099071;28;20476;-69
2022/10/08 05:34:28;;;;;;;21.27;12.23;;;;;;;11.33;87.80;100328.28;5099329;28;20481;-68
2022/10/08 05:36:55;;;;;;;16.93;10.43;;;;;;;11.41;87.68;100320.41;5099423;28;21149;-67
2022/10/08 05:39:22;;;;;;;14.30;9.57;;;;;;;11.34;87.83;100317.44;5100544;28;20513;-65
2022/10/08 05:41:48;;;;;;;10.73;8.97;;;;;;;11.23;87.84;100323.81;5110253;28;20470;-67
2022/10/08 05:44:17;;;;;;;14.90;9.53;;;;;;;11.14;88.51;100335.34;5106838;28;20473;-67
2022/10/08 05:46:44;;;;;;;14.23;8.20;;;;;;;11.18;88.34;100341.25;5102354;28;20475;-66
2022/10/08 05:49:17;;;;;;;16.97;8.60;;;;;;;11.09;88.66;100345.63;5105180;28;20490;-66
2022/10/08 05:51:43;;;;;;;12.60;8.30;;;;;;;11.10;89.41;100352.69;5098254;28;20816;-66
2022/10/08 05:54:10;;;;;;;13.70;9.30;;;;;;;11.11;89.33;100363.25;5106579;28;20489;-67
2022/10/08 05:56:37;;;;;;;17.53;10.10;;;;;;;11.15;89.87;100350.44;5109580;28;20500;-67
2022/10/08 05:59:03;;;;;;;15.70;11.93;;;;;;;11.36;90.45;100362.81;5096274;28;20444;-67
2022/10/08 06:01:32;;;;;;;14.73;12.10;;;;;;;11.35;90.52;100369.97;5104003;28;20468;-67
2022/10/08 06:04:00;;;;;;;18.87;13.40;;;;;;;11.32;90.72;100381.00;5105832;28;20964;-67
2022/10/08 06:06:29;;;;;;;19.70;12.17;;;;;;;11.47;90.64;100382.25;5101992;28;20506;-67
2022/10/08 06:08:57;;;;;;;15.60;11.90;;;;;;;11.52;90.71;100395.19;5102349;28;20494;-67
2022/10/08 06:11:24;;;;;;;15.13;11.93;;;;;;;11.41;91.27;100396.19;5101571;28;20640;-67
2022/10/08 06:13:52;;;;;;;17.43;12.93;;;;;;;11.48;90.81;100401.81;5102721;28;20451;-67
2022/10/08 06:16:19;;;;;;;19.07;12.90;;;;;;;11.55;91.00;100400.25;5102652;28;20473;-68
2022/10/08 06:18:46;;;;;;;17.07;13.20;;;;;;;11.55;91.00;100402.94;5113005;28;20491;-68
2022/10/08 06:21:14;;;;;;;15.57;12.97;;;;;;;11.49;91.91;100407.03;5102804;28;20509;-68
2022/10/08 06:23:47;;;;;;;19.87;13.87;;;;;;;11.58;91.70;100416.03;5103014;28;20463;-68
2022/10/08 06:26:14;;;;;;;24.23;13.90;;;;;;;11.53;92.27;100429.00;5100282;28;20506;-68
2022/10/08 06:28:41;;;;;;;20.40;14.83;;;;;;;11.61;92.27;100430.97;5105096;28;20483;-68
2022/10/08 06:31:08;;;;;;;23.17;17.13;;;;;;;11.57;92.13;100434.94;5097914;28;20463;-68
2022/10/08 06:33:35;;;;;;;24.57;17.83;;;;;;;11.67;92.25;100431.25;5102277;28;20829;-67
2022/10/08 06:36:04;;;;;;;27.00;18.63;;;;;;;11.77;92.14;100439.28;5105166;28;20482;-68
2022/10/08 06:38:30;;;;;;;26.67;17.23;;;;;;;11.83;91.52;100446.72;5101319;28;20482;-68
2022/10/08 06:40:59;;;;;;;25.57;18.20;;;;;;;11.76;91.80;100452.81;5101323;28;20489;-68
2022/10/08 06:43:26;;;;;;;25.63;20.00;;;;;;;11.56;92.68;100457.31;5105315;28;20496;-68
2022/10/08 06:45:54;;;;;;;24.87;19.87;;;;;;;11.68;92.72;100457.03;5100654;28;20463;-69
2022/10/08 06:48:21;;;;;;;25.47;20.37;;;;;;;11.75;92.33;100459.13;5099991;28;21001;-69
2022/10/08 06:50:48;;;;;;;31.30;20.33;;;;;;;11.83;92.56;100459.28;5099953;28;20475;-68
2022/10/08 06:53:14;;;;;;;20.63;18.03;;;;;;;11.90;92.25;100457.69;5102333;28;20447;-68
2022/10/08 06:55:42;;;;;;;27.43;20.53;;;;;;;11.94;91.82;100461.81;5103175;28;20509;-69
2022/10/08 06:58:10;;;;;;;25.13;20.03;;;;;;;11.95;91.76;100457.31;5104622;28;20513;-69
2022/10/08 07:00:37;;;;;;;21.37;18.73;;;;;;;11.68;92.65;100462.41;5102102;28;20459;-69
2022/10/08 07:03:04;;;;;;;30.43;18.53;;;;;;;11.81;92.74;100471.97;5099798;28;20525;-70
2022/10/08 07:05:33;;;;;;;29.77;19.47;;;;;;;11.81;92.57;100474.66;5101030;28;20495;-69
2022/10/08 07:08:00;;;;;;;24.20;18.77;;;;;;;11.88;92.41;100487.31;5105639;28;20454;-69
2022/10/08 07:10:27;;;;;;;22.63;18.10;;;;;;;11.82;92.78;100482.53;5104434;28;20472;-69
2022/10/08 07:12:53;;;;;;;27.47;20.40;;;;;;;11.77;92.94;100482.13;5105107;28;20569;-69
2022/10/08 07:15:22;;;;;;;28.47;19.77;;;;;;;11.83;92.90;100483.38;5101060;28;20493;-69
2022/10/08 07:17:49;;;;;;;23.90;18.00;;;;;;;11.88;93.26;100492.69;5103533;28;20463;-69
2022/10/08 07:20:16;;;;;;;28.50;20.13;;;;;;;11.84;93.02;100488.59;5103710;28;20467;-69
2022/10/08 07:22:42;;;;;;;28.73;19.50;;;;;;;11.95;92.65;100492.97;5096947;28;20447;-73
2022/10/08 07:25:09;;;;;;;35.97;19.80;;;;;;;11.99;92.45;100494.38;5099807;28;20744;-73
2022/10/08 07:27:36;;;;;;;26.50;19.77;;;;;;;12.00;92.47;100495.25;5101137;28;20459;-71
2022/10/08 07:30:02;;;;;;;24.80;18.67;;;;;;;11.97;92.53;100504.41;5100708;28;20471;-70
2022/10/08 07:32:31;;;;;;;32.33;20.53;;;;;;;11.99;92.35;100515.81;5098327;28;20505;-70
2022/10/08 07:34:59;;;;;;;23.33;18.43;;;;;;;11.99;92.46;100523.84;5100397;28;20483;-70
2022/10/08 07:37:26;;;;;;;26.90;18.03;;;;;;;12.08;92.05;100513.28;5097800;28;20548;-70
2022/10/08 07:39:53;;;;;;;28.20;17.70;;;;;;;12.15;91.29;100517.06;5105744;28;20450;-70
2022/10/08 07:42:19;;;;;;;23.03;16.50;;;;;;;12.32;90.46;100523.50;5104218;28;20884;-70
2022/10/08 07:44:46;;;;;;;22.57;15.80;;;;;;;12.31;89.84;100520.00;5101645;28;20764;-70
2022/10/08 07:47:14;;;;;;;21.90;15.70;;;;;;;12.42;89.23;100527.84;5105784;28;20505;-70
2022/10/08 07:49:43;;;;;;;18.83;15.77;;;;;;;12.40;88.90;100523.66;5100381;28;20472;-69
2022/10/08 07:52:10;;;;;;;19.13;13.30;;;;;;;12.75;87.77;100525.63;5116130;28;20506;-70
2022/10/08 07:54:37;;;;;;;22.60;14.60;;;;;;;12.63;87.00;100540.22;5120817;28;20514;-70
2022/10/08 07:57:04;;;;;;;22.50;14.30;;;;;;;12.79;86.30;100521.66;5110157;28;20552;-70
2022/10/08 07:59:31;;;;;;;22.30;13.87;;;;;;;12.97;85.58;100527.06;5101747;28;20432;-69
2022/10/08 08:01:57;;;;;;;17.43;12.90;;;;;;;13.03;85.36;100541.72;5114033;28;20498;-68
2022/10/08 08:04:24;;;;;;;21.53;13.73;;;;;;;12.97;84.78;100547.72;5120317;28;20472;-69
2022/10/08 08:06:53;;;;;;;22.00;12.40;;;;;;;13.10;83.94;100553.56;5111569;28;20928;-68
2022/10/08 08:09:20;;;;;;;15.70;11.30;;;;;;;13.08;83.47;100550.19;5107831;28;20466;-69
2022/10/08 08:11:48;;;;;;;24.10;13.77;;;;;;;12.71;84.60;100553.75;5114333;28;20547;-69
2022/10/08 08:14:15;;;;;;;13.77;11.30;;;;;;;12.76;85.01;100547.94;5106109;28;20824;-69
2022/10/08 08:16:42;;;;;;;17.47;11.93;;;;;;;12.81;84.73;100556.38;5099512;28;20628;-69
2022/10/08 08:19:09;;;;;;;27.60;14.03;;;;;;;13.22;83.33;100562.25;5102564;28;20455;-68
2022/10/08 08:21:37;;;;;;;24.33;13.03;;;;;;;12.91;83.92;100573.28;5102208;28;20471;-68
2022/10/08 08:24:07;;;;;;;23.70;12.50;;;;;;;12.89;84.70;100572.59;5099810;28;20985;-68
2022/10/08 08:26:36;;;;;;;20.43;12.90;;;;;;;12.94;84.87;100580.19;5099197;28;20509;-69
2022/10/08 08:29:05;;;;;;;16.33;11.57;;;;;;;13.17;83.88;100570.75;5101823;28;20472;-69
2022/10/08 08:31:33;;;;;;;19.33;13.00;;;;;;;13.26;83.57;100590.50;5098646;28;20472;-69
2022/10/08 08:34:02;;;;;;;20.73;13.60;;;;;;;13.32;83.49;100592.63;5100033;28;20482;-69
2022/10/08 08:36:32;;;;;;;16.20;12.97;;;;;;;13.05;84.01;100592.56;5100274;28;20471;-69
2022/10/08 08:38:59;;;;;;;18.97;12.70;;;;;;;13.27;83.55;100592.19;5099074;28;20753;-69
2022/10/08 08:41:52;;;;;;;17.17;11.67;;;;;;;13.39;82.99;100584.81;5105287;28;20475;-69
2022/10/08 08:44:21;;;;;;;18.67;11.67;;;;;;;13.36;82.61;100583.25;5120098;28;21006;-69
2022/10/08 08:46:51;;;;;;;18.17;12.07;;;;;;;14.75;81.03;100595.41;5112319;28;20525;-69
2022/10/08 08:49:23;;;;;;;14.33;9.90;;;;;;;16.62;69.94;100608.63;5097619;28;20471;-68
2022/10/08 08:51:51;;;;;;;17.33;9.80;;;;;;;16.04;69.53;100597.88;5101264;28;20464;-68
2022/10/08 08:54:19;;;;;;;14.50;8.40;;;;;;;14.87;73.24;100600.34;5099774;28;20586;-64
2022/10/08 08:56:46;;;;;;;14.13;9.00;;;;;;;15.72;72.52;100606.72;5098542;28;20462;-66
2022/10/08 08:59:26;;;;;;;14.60;8.10;;;;;;;17.62;63.61;100603.56;5102849;28;20456;-66
2022/10/08 09:01:57;;;;;;;11.90;6.90;;;;;;;18.93;59.20;100600.78;5096890;28;20565;-66
2022/10/08 09:04:29;;;;;;;10.00;6.03;;;;;;;19.87;55.34;100606.34;5098595;28;20515;-66
2022/10/08 09:06:58;;;;;;;6.40;5.50;;;;;;;20.39;53.24;100608.91;5097911;28;20491;-66
2022/10/08 09:09:29;;;;;;;7.73;5.87;;;;;;;19.09;55.15;100599.75;5098905;28;20548;-66
2022/10/08 09:11:57;;;;;;;8.73;5.17;;;;;;;20.84;50.62;100604.06;5096792;28;20539;-67
2022/10/08 09:14:37;;;;;;;8.17;5.40;;;;;;;21.03;50.21;100616.91;5098244;28;20507;-66
2022/10/08 09:17:13;;;;;;;12.33;5.90;;;;;;;22.75;46.36;100616.72;5096266;28;20527;-67
2022/10/08 09:19:40;;;;;;;6.33;4.90;;;;;;;21.61;46.72;100602.97;5098142;28;20442;-67
2022/10/08 09:22:19;;;;;;;8.33;3.87;;;;;;;21.38;47.74;100624.19;5098416;28;20469;-67
2022/10/08 09:24:46;;;;;;;7.27;4.23;;;;;;;21.08;49.05;100619.03;5098562;28;20523;-67
2022/10/08 09:27:14;;;;;;;7.90;4.50;;;;;;;20.84;49.26;100629.34;5110670;28;20477;-67
2022/10/08 09:29:43;;;;;;;8.60;5.67;;;;;;;19.01;54.34;100635.94;5106578;28;20482;-66
2022/10/08 09:32:16;;;;;;;6.17;4.10;;;;;;;20.05;51.87;100629.47;5099498;28;20474;-66
2022/10/08 09:34:44;;;;;;;6.20;3.80;;;;;;;20.44;50.09;100628.19;5099777;28;20453;-66
2022/10/08 09:37:18;;;;;;;7.70;3.37;;;;;;;21.18;48.48;100637.69;5099582;28;20460;-66
2022/10/08 09:40:09;;;;;;;10.40;4.37;;;;;;;21.47;47.31;100639.31;5099942;28;20452;-66
2022/10/08 09:42:35;;;;;;;7.90;4.53;;;;;;;19.94;51.05;100638.97;5099431;28;20452;-66
2022/10/08 09:45:06;;;;;;;6.73;3.50;;;;;;;19.72;51.29;100636.22;5099370;28;20458;-66
2022/10/08 09:47:32;;;;;;;9.13;4.00;;;;;;;17.72;56.15;100643.03;5099194;28;20485;-67
2022/10/08 09:50:03;;;;;;;7.73;2.93;;;;;;;18.10;56.20;100649.41;5099713;28;20510;-66
2022/10/08 09:52:30;;;;;;;9.57;5.27;;;;;;;16.76;60.51;100654.66;5098724;28;20530;-66
2022/10/08 09:54:59;;;;;;;7.03;4.40;;;;;;;15.83;63.79;100646.84;5099714;28;20466;-66
2022/10/08 09:57:26;;;;;;;8.57;4.60;;;;;;;15.82;65.21;100651.41;5099257;28;20468;-66
2022/10/08 09:59:54;;;;;;;6.80;4.60;;;;;;;16.05;65.41;100653.47;5098626;28;20898;-66
2022/10/08 10:02:31;;;;;;;10.57;4.60;;;;;;;15.97;65.27;100654.31;5099012;28;20467;-66
2022/10/08 10:04:59;;;;;;;9.27;4.30;;;;;;;15.94;66.00;100653.81;5099291;28;20732;-66
2022/10/08 10:07:37;;;;;;;9.43;4.30;;;;;;;15.63;66.93;100663.28;5108845;28;20487;-66
2022/10/08 10:10:04;;;;;;;11.97;4.70;;;;;;;15.12;68.37;100664.25;5116353;28;20535;-66
2022/10/08 10:12:33;;;;;;;10.30;4.60;;;;;;;14.91;69.54;100657.38;5119238;28;20451;-66
2022/10/08 10:15:02;;;;;;;8.77;4.90;;;;;;;14.73;70.01;100662.84;5118915;28;20458;-66
2022/10/08 10:17:36;;;;;;;9.33;4.97;;;;;;;14.86;70.14;100662.44;5117363;28;20482;-66
2022/10/08 10:20:06;;;;;;;9.63;4.17;;;;;;;15.72;67.75;100658.75;5119097;28;20475;-66
2022/10/08 10:22:36;;;;;;;7.27;3.80;;;;;;;18.70;56.42;100660.44;5116167;28;20526;-66
2022/10/08 10:25:06;;;;;;;7.33;2.67;;;;;;;20.66;50.26;100658.91;5106289;28;20990;-66
2022/10/08 10:27:35;;;;;;;6.10;2.87;;;;;;;20.90;48.69;100654.91;5114441;28;20484;-67
2022/10/08 10:30:13;;;;;;;6.57;2.97;;;;;;;20.81;48.01;100662.34;5122409;28;20526;-67
2022/10/08 10:32:44;;;;;;;9.57;2.90;;;;;;;20.97;47.20;100661.22;5118306;28;20488;-67
2022/10/08 10:35:15;;;;;;;5.73;1.93;;;;;;;19.90;47.97;100657.53;5081826;28;20456;-66
2022/10/08 10:37:46;;;;;;;4.60;1.63;;;;;;;20.42;46.19;100662.84;5110465;28;20511;-66
2022/10/08 10:40:27;;;;;;;4.33;2.00;;;;;;;19.61;47.75;100654.84;5115605;28;20454;-66
2022/10/08 10:43:00;;;;;;;5.23;1.90;;;;;;;17.66;52.36;100650.84;5106841;28;20445;-66
2022/10/08 10:45:33;;;;;;;6.80;2.03;;;;;;;16.79;55.97;100663.41;5101889;28;20506;-66
2022/10/08 10:48:03;;;;;;;6.37;2.20;;;;;;;16.35;58.53;100676.28;5099121;28;20447;-66
2022/10/08 10:50:38;;;;;;;7.00;2.00;;;;;;;16.30;58.72;100667.84;5101901;28;20489;-66
2022/10/08 10:53:12;;;;;;;4.60;2.10;;;;;;;16.03;59.99;100673.56;5102394;28;20446;-66
2022/10/08 10:55:41;;;;;;;5.13;1.50;;;;;;;15.71;60.40;100667.00;5098461;28;20529;-66
2022/10/08 10:58:25;;;;;;;7.50;2.57;;;;;;;15.67;60.52;100671.06;5103607;28;20451;-66
2022/10/08 11:00:58;;;;;;;5.60;2.13;;;;;;;15.49;60.46;100677.41;5102126;28;20467;-66
2022/10/08 11:03:31;;;;;;;4.63;2.70;;;;;;;15.58;60.79;100667.50;5104426;28;20820;-66
2022/10/08 11:06:06;;;;;;;6.33;2.00;;;;;;;17.01;56.58;100676.25;5098370;28;20526;-66
2022/10/08 11:08:36;;;;;;;3.97;1.77;;;;;;;17.40;52.09;100666.50;5103291;28;20470;-66
2022/10/08 11:11:13;;;;;;;5.20;2.30;;;;;;;17.27;53.10;100673.31;5100827;28;20493;-66
2022/10/08 11:13:47;;;;;;;6.13;1.70;;;;;;;18.79;49.17;100660.16;5101644;28;20456;-66
2022/10/08 11:16:26;;;;;;;7.93;1.53;;;;;;;19.47;46.55;100662.81;5111325;28;20479;-66
2022/10/08 11:18:56;;;;;;;5.40;1.80;;;;;;;20.37;44.74;100668.84;5097344;28;20519;-66
2022/10/08 11:21:36;;;;;;;2.80;1.13;;;;;;;20.93;42.34;100667.25;5103845;28;20488;-66
2022/10/08 11:24:22;;;;;;;8.70;1.93;;;;;;;17.54;48.70;100663.06;5099888;28;20442;-66
2022/10/08 11:26:54;;;;;;;4.97;1.60;;;;;;;16.57;51.13;100663.13;5102216;28;20766;-66
2022/10/08 11:29:24;;;;;;;3.50;1.60;;;;;;;16.76;52.68;100665.44;5100033;28;20473;-66